Time;durP1;ratioP1;P1;durP2;ratioP2;P2;SDS_P1;SDS_P2;PMS_P1;PMS_P2;Temp;Humidity;BMP_temperature;BMP_pressure;BME280_temperature;BME280_humidity;BME280_pressure;Samples;Min_cycle;Max_cycle;Signal;HPM_P1;HPM_P2
2023/07/11 00:01:21;;;;;;;6.63;3.92;;;24.20;42.20;;;25.91;35.14;97901.41;5030680;28;20049;-51
2023/07/11 00:03:49;;;;;;;5.97;4.53;;;24.10;42.20;;;25.88;35.14;97904.63;5030734;28;20041;-52
2023/07/11 00:06:19;;;;;;;6.10;5.00;;;24.10;42.30;;;25.84;35.19;97891.72;5030443;28;20068;-51
2023/07/11 00:08:47;;;;;;;5.88;4.72;;;24.00;42.30;;;25.80;34.70;97891.41;5030726;28;20049;-51
2023/07/11 00:11:17;;;;;;;6.28;5.13;;;24.00;42.00;;;25.80;34.55;97896.06;5033236;28;20516;-52
2023/07/11 00:13:49;;;;;;;6.55;4.00;;;23.90;41.90;;;25.77;34.71;97891.94;5034002;28;20045;-54
2023/07/11 00:16:19;;;;;;;5.88;4.55;;;23.90;41.90;;;25.78;35.03;97881.84;5034558;28;20046;-53
2023/07/11 00:18:46;;;;;;;9.23;7.35;;;24.00;41.90;;;25.74;34.61;97886.97;5034364;28;20048;-49
2023/07/11 00:21:14;;;;;;;10.77;8.35;;;23.90;41.80;;;25.73;35.02;97882.63;5034132;28;20493;-51
2023/07/11 00:23:41;;;;;;;7.35;5.18;;;23.90;41.90;;;25.72;34.69;97887.22;5034217;28;20595;-50
2023/07/11 00:26:09;;;;;;;7.65;5.07;;;23.90;41.90;;;25.69;34.53;97876.84;5034167;28;20417;-51
2023/07/11 00:28:37;;;;;;;7.50;5.55;;;23.90;41.80;;;25.65;34.49;97874.84;5033240;28;20535;-54
2023/07/11 00:31:05;;;;;;;8.60;5.68;;;23.80;41.80;;;25.65;34.83;97880.31;5034102;28;20042;-51
2023/07/11 00:33:32;;;;;;;6.70;5.85;;;23.80;41.70;;;25.65;34.73;97880.31;5033034;28;20131;-53
2023/07/11 00:36:00;;;;;;;11.73;6.18;;;23.80;41.60;;;25.64;34.80;97873.22;5016182;28;20500;-53
2023/07/11 00:38:28;;;;;;;9.77;6.97;;;23.90;41.70;;;25.61;35.03;97869.13;5034205;28;20072;-51
2023/07/11 00:40:57;;;;;;;10.13;6.95;;;23.80;41.80;;;25.60;34.59;97866.63;5033921;28;20045;-53
2023/07/11 00:43:24;;;;;;;10.65;7.28;;;23.80;41.80;;;25.58;34.83;97871.53;5031998;28;20120;-54
2023/07/11 00:46:10;;;;;;;12.10;8.77;;;23.80;41.80;;;25.55;34.49;97864.66;5034032;28;20500;-54
2023/07/11 00:48:44;;;;;;;12.77;10.20;;;23.80;42.00;;;25.52;34.98;97866.00;5034007;28;20048;-51
2023/07/11 00:51:36;;;;;;;10.55;8.27;;;23.70;42.10;;;25.47;35.04;97857.72;5040808;28;20041;-51
2023/07/11 00:54:07;;;;;;;12.40;8.48;;;23.60;42.20;;;25.45;34.91;97857.16;5025749;28;20520;-52
2023/07/11 00:56:45;;;;;;;11.27;8.75;;;23.60;42.20;;;25.41;34.92;97857.94;5032515;28;20523;-49
2023/07/11 00:59:16;;;;;;;10.98;8.95;;;23.60;42.40;;;25.39;34.78;97851.91;5032298;28;20504;-52
2023/07/11 01:01:51;;;;;;;16.05;9.77;;;23.50;42.80;;;25.37;34.82;97852.16;5015492;28;20058;-53
2023/07/11 01:04:19;;;;;;;17.13;10.98;;;23.50;42.00;;;25.38;34.68;97847.53;5032535;28;20061;-51
2023/07/11 01:06:49;;;;;;;11.50;8.98;;;23.60;42.00;;;25.33;34.73;97848.28;5033618;28;20044;-51
2023/07/11 01:09:18;;;;;;;11.20;8.93;;;23.50;42.10;;;25.32;35.18;97842.03;5032368;28;20056;-54
2023/07/11 01:12:08;;;;;;;12.98;8.23;;;23.50;42.00;;;25.29;34.74;97845.25;5032067;28;20052;-49
2023/07/11 01:14:37;;;;;;;10.43;8.48;;;23.50;42.20;;;25.31;34.90;97845.81;5033115;28;20382;-53
2023/07/11 01:17:27;;;;;;;14.43;10.30;;;23.50;42.10;;;25.27;35.16;97841.13;5031850;28;20065;-50
2023/07/11 01:19:58;;;;;;;16.67;10.57;;;23.50;42.30;;;25.27;35.14;97843.84;5031155;28;20061;-52
2023/07/11 01:22:29;;;;;;;9.20;7.13;;;23.40;42.20;;;25.24;34.84;97839.75;5033689;28;20052;-52
2023/07/11 01:25:03;;;;;;;8.40;6.82;;;23.40;42.20;;;25.24;35.33;97839.75;5031770;28;20240;-54
2023/07/11 01:27:31;;;;;;;9.25;7.35;;;23.50;42.30;;;25.24;35.32;97837.00;5032127;28;20050;-51
2023/07/11 01:30:03;;;;;;;9.48;6.40;;;23.50;42.20;;;25.24;35.13;97844.34;5031515;28;20052;-52
2023/07/11 01:32:31;;;;;;;10.18;6.50;;;23.50;42.30;;;25.23;35.17;97835.34;5031743;28;20056;-52
2023/07/11 01:34:59;;;;;;;10.00;6.22;;;23.40;42.40;;;25.23;35.01;97835.34;5031881;28;20045;-50
2023/07/11 01:37:27;;;;;;;9.23;6.28;;;23.50;42.40;;;25.23;35.20;97837.25;5033072;28;20524;-50
2023/07/11 01:39:55;;;;;;;10.05;7.28;;;23.40;42.40;;;25.22;35.29;97839.16;5032540;28;20076;-54
2023/07/11 01:42:25;;;;;;;7.30;6.53;;;23.40;42.20;;;25.20;35.46;97835.00;5032261;28;20052;-52
2023/07/11 01:44:53;;;;;;;12.38;10.38;;;23.40;42.40;;;25.17;35.37;97820.00;5031632;28;20052;-54
2023/07/11 01:47:22;;;;;;;8.73;7.70;;;23.40;42.50;;;25.16;35.21;97821.06;5032857;28;20033;-49
2023/07/11 01:49:51;;;;;;;9.70;7.07;;;23.40;42.60;;;25.12;35.37;97819.91;5031126;28;20045;-54
2023/07/11 01:52:21;;;;;;;7.63;6.22;;;23.30;42.70;;;25.08;35.61;97816.84;5031058;28;20049;-52
2023/07/11 01:54:50;;;;;;;7.20;5.82;;;23.30;43.00;;;25.07;35.58;97814.41;5032765;28;20057;-53
2023/07/11 01:57:18;;;;;;;7.28;5.95;;;23.30;43.20;;;25.07;35.95;97815.22;5031353;28;20057;-54
2023/07/11 01:59:46;;;;;;;8.32;6.50;;;23.30;43.10;;;25.07;35.87;97814.41;5031159;28;20414;-53
2023/07/11 02:02:14;;;;;;;10.30;7.03;;;23.40;42.90;;;25.07;35.65;97812.50;5031943;28;20045;-53
2023/07/11 02:04:43;;;;;;;10.57;6.88;;;23.40;42.90;;;25.06;35.84;97815.47;5032277;28;20048;-53
2023/07/11 02:07:11;;;;;;;8.68;6.80;;;23.40;43.10;;;25.03;36.15;97824.97;5032334;28;20044;-54
2023/07/11 02:09:38;;;;;;;8.93;6.90;;;23.40;43.30;;;24.99;36.24;97818.38;5030990;28;20053;-52
2023/07/11 02:12:08;;;;;;;11.75;7.72;;;23.30;43.40;;;24.96;36.44;97818.88;5022862;28;20049;-52
2023/07/11 02:14:36;;;;;;;8.02;6.38;;;23.30;43.90;;;24.93;36.61;97809.31;5031270;28;20381;-50
2023/07/11 02:17:04;;;;;;;7.07;6.32;;;23.20;44.20;;;24.88;36.64;97813.84;5031073;28;20046;-53
2023/07/11 02:19:32;;;;;;;8.63;6.70;;;23.20;44.30;;;24.82;37.04;97806.69;5031878;28;20049;-49
2023/07/11 02:22:01;;;;;;;8.98;6.38;;;23.10;44.90;;;24.76;37.11;97805.78;5031047;28;20041;-50
2023/07/11 02:24:29;;;;;;;10.35;6.72;;;22.90;45.40;;;24.68;37.12;97809.75;5030708;28;20050;-50
2023/07/11 02:26:57;;;;;;;7.60;5.53;;;22.80;45.60;;;24.64;37.53;97807.75;5030600;28;20436;-53
2023/07/11 02:29:24;;;;;;;8.95;7.05;;;22.80;45.90;;;24.60;37.45;97809.31;5031848;28;20049;-50
2023/07/11 02:31:52;;;;;;;7.70;5.82;;;22.70;46.10;;;24.55;37.47;97794.56;5030655;28;20048;-51
2023/07/11 02:34:20;;;;;;;6.43;5.43;;;22.70;46.20;;;24.52;37.78;97789.63;5031700;28;20496;-52
2023/07/11 02:36:47;;;;;;;8.63;6.15;;;22.70;46.40;;;24.48;37.82;97791.16;5031726;28;20052;-51
2023/07/11 02:39:16;;;;;;;6.32;5.63;;;22.60;46.50;;;24.43;38.05;97793.81;5031758;28;20049;-50
2023/07/11 02:41:44;;;;;;;10.95;6.30;;;22.50;47.00;;;24.38;37.91;97796.44;5030729;28;20519;-50
2023/07/11 02:44:11;;;;;;;9.80;5.88;;;22.50;47.00;;;24.35;38.31;97799.66;5031668;28;20057;-53
2023/07/11 02:46:39;;;;;;;8.30;5.60;;;22.50;47.40;;;24.29;38.17;97787.88;5031659;28;20056;-54
2023/07/11 02:49:08;;;;;;;6.18;5.15;;;22.40;47.20;;;24.26;38.39;97790.25;5029607;28;20057;-52
2023/07/11 02:51:38;;;;;;;7.68;5.75;;;22.40;47.50;;;24.22;38.60;97786.38;5031416;28;20067;-47
2023/07/11 02:54:07;;;;;;;7.25;5.85;;;22.40;47.80;;;24.18;38.71;97786.84;5031554;28;20064;-52
2023/07/11 02:56:35;;;;;;;6.72;5.70;;;22.30;48.00;;;24.18;38.83;97789.56;5031775;28;20524;-53
2023/07/11 02:59:03;;;;;;;8.18;6.15;;;22.40;47.90;;;24.20;38.84;97777.63;5031242;28;20511;-52
2023/07/11 03:01:34;;;;;;;7.80;5.78;;;22.40;47.60;;;24.21;38.59;97780.09;5031171;28;20046;-53
2023/07/11 03:04:03;;;;;;;7.50;6.28;;;22.50;47.40;;;24.24;38.66;97781.50;5030212;28;20045;-51
2023/07/11 03:06:30;;;;;;;8.32;6.25;;;22.50;47.40;;;24.25;38.83;97780.41;5031344;28;20052;-53
2023/07/11 03:08:58;;;;;;;7.15;6.43;;;22.50;47.40;;;24.22;38.67;97779.03;5031315;28;20045;-53
2023/07/11 03:11:25;;;;;;;7.57;6.30;;;22.50;47.70;;;24.18;38.81;97775.97;5029923;28;20042;-52
2023/07/11 03:13:53;;;;;;;6.43;5.55;;;22.40;47.80;;;24.18;38.97;97773.25;5030034;28;20061;-50
2023/07/11 03:16:20;;;;;;;8.82;7.07;;;22.40;47.90;;;24.17;38.92;97768.06;5030437;28;20049;-50
2023/07/11 03:18:48;;;;;;;9.57;6.85;;;22.40;48.10;;;24.15;38.96;97775.63;5030786;28;20057;-50
2023/07/11 03:21:16;;;;;;;13.23;7.38;;;22.40;48.00;;;24.12;39.08;97766.09;5031505;28;20045;-50
2023/07/11 03:23:43;;;;;;;8.38;6.97;;;22.30;48.10;;;24.12;39.15;97768.81;5031242;28;20443;-52
2023/07/11 03:26:11;;;;;;;8.55;6.88;;;22.30;48.10;;;24.13;39.20;97761.47;5030909;28;20052;-53
2023/07/11 03:28:39;;;;;;;8.40;6.88;;;22.40;48.00;;;24.12;39.08;97759.81;5031134;28;20052;-51
2023/07/11 03:31:06;;;;;;;10.38;7.53;;;22.40;47.90;;;24.12;39.08;97755.19;5029335;28;20045;-53
2023/07/11 03:33:34;;;;;;;11.88;9.20;;;22.40;47.80;;;24.13;39.12;97756.03;5031182;28;20048;-52
2023/07/11 03:36:02;;;;;;;10.75;8.57;;;22.40;47.70;;;24.12;39.07;97755.19;5031048;28;20038;-53
2023/07/11 03:38:29;;;;;;;9.23;6.70;;;22.40;47.70;;;24.13;39.14;97756.03;5030787;28;20041;-52
2023/07/11 03:40:57;;;;;;;9.88;7.47;;;22.40;48.10;;;24.12;39.29;97749.75;5030647;28;20041;-53
2023/07/11 03:43:24;;;;;;;20.55;15.20;;;22.40;47.90;;;24.10;39.25;97749.19;5031398;28;20041;-51
2023/07/11 03:45:52;;;;;;;10.05;8.32;;;22.40;48.10;;;24.09;39.22;97754.88;5035077;28;20485;-53
2023/07/11 03:48:19;;;;;;;8.30;6.80;;;22.40;48.00;;;24.11;39.28;97752.72;5034981;28;20511;-49
2023/07/11 03:50:47;;;;;;;10.10;7.28;;;22.40;47.90;;;24.10;39.19;97754.63;5034456;28;20038;-53
2023/07/11 03:53:15;;;;;;;7.93;7.00;;;22.40;47.70;;;24.11;39.25;97750.00;5026835;28;20041;-50
2023/07/11 03:55:43;;;;;;;13.00;6.90;;;22.40;47.70;;;24.11;39.26;97747.28;5034910;28;20052;-51
2023/07/11 03:58:11;;;;;;;10.00;7.32;;;22.40;47.80;;;24.13;39.23;97739.69;5034579;28;20045;-49
2023/07/11 04:00:38;;;;;;;10.25;7.13;;;22.50;47.50;;;24.15;39.17;97745.72;5034352;28;20045;-51
2023/07/11 04:03:06;;;;;;;9.32;7.63;;;22.50;47.30;;;24.17;39.12;97746.28;5033590;28;20061;-50
2023/07/11 04:05:35;;;;;;;8.00;6.60;;;22.60;47.40;;;24.18;39.05;97745.25;5034674;28;20045;-51
2023/07/11 04:08:03;;;;;;;12.00;7.40;;;22.60;47.30;;;24.20;39.21;97742.28;5034470;28;20065;-51
2023/07/11 04:10:31;;;;;;;11.05;7.25;;;22.60;48.30;;;24.18;39.38;97745.25;5034028;28;20516;-49
2023/07/11 04:12:59;;;;;;;9.95;7.88;;;22.60;47.70;;;24.16;39.23;97740.03;5034414;28;20037;-53
2023/07/11 04:15:26;;;;;;;12.10;7.38;;;22.50;47.70;;;24.14;39.36;97742.19;5032998;28;20048;-52
2023/07/11 04:17:54;;;;;;;10.55;7.30;;;22.50;48.10;;;24.12;39.58;97740.78;5034343;28;20501;-53
2023/07/11 04:20:22;;;;;;;9.60;6.75;;;22.50;48.30;;;24.10;39.65;97738.31;5034214;28;20400;-52
2023/07/11 04:22:49;;;;;;;8.77;6.35;;;22.40;48.40;;;24.12;39.71;97735.34;5034166;28;20420;-51
2023/07/11 04:25:17;;;;;;;10.75;6.65;;;22.50;48.50;;;24.14;39.60;97735.94;5034233;28;20042;-53
2023/07/11 04:27:44;;;;;;;8.13;6.10;;;22.50;48.40;;;24.15;39.61;97743.81;5034368;28;20421;-49
2023/07/11 04:30:12;;;;;;;8.80;6.10;;;22.50;48.40;;;24.17;39.85;97735.41;5033849;28;20045;-50
2023/07/11 04:32:40;;;;;;;7.28;6.25;;;22.50;48.50;;;24.17;39.87;97740.84;5033226;28;20046;-53
2023/07/11 04:35:14;;;;;;;8.57;5.85;;;22.50;48.70;;;24.19;39.96;97744.16;5033976;28;20049;-50
2023/07/11 04:37:41;;;;;;;8.38;5.80;;;22.50;49.30;;;24.21;39.90;97743.91;5024489;28;20136;-52
2023/07/11 04:40:11;;;;;;;8.38;5.75;;;22.50;49.00;;;24.21;40.19;97742.00;5033890;28;20046;-50
2023/07/11 04:42:38;;;;;;;7.50;5.28;;;22.50;50.10;;;24.20;40.46;97745.81;5033288;28;20049;-52
2023/07/11 04:45:08;;;;;;;6.10;5.50;;;22.50;49.50;;;24.17;40.53;97743.56;5033990;28;20041;-52
2023/07/11 04:47:36;;;;;;;8.20;6.82;;;22.40;49.70;;;24.20;40.53;97742.28;5033964;28;20378;-51
2023/07/11 04:50:04;;;;;;;6.47;5.20;;;22.50;49.80;;;24.23;40.65;97745.31;5033397;28;20041;-53
2023/07/11 04:52:32;;;;;;;6.28;5.22;;;22.60;49.80;;;24.24;40.70;97740.72;5033951;28;20033;-53
2023/07/11 04:55:00;;;;;;;7.63;4.93;;;22.60;50.00;;;24.23;40.71;97736.31;5033079;28;20045;-49
2023/07/11 04:57:27;;;;;;;7.85;5.72;;;22.50;50.20;;;24.20;40.78;97742.28;5032646;28;20045;-51
2023/07/11 04:59:55;;;;;;;6.95;4.85;;;22.50;50.40;;;24.18;41.01;97747.97;5033642;28;20389;-52
2023/07/11 05:02:22;;;;;;;8.15;4.93;;;22.50;50.60;;;24.16;41.16;97741.94;5033323;28;20041;-56
2023/07/11 05:04:50;;;;;;;8.05;6.40;;;22.50;51.00;;;24.15;41.29;97737.56;5033632;28;20041;-52
2023/07/11 05:07:18;;;;;;;7.43;4.80;;;22.40;51.00;;;24.12;41.49;97744.31;5033627;28;20037;-51
2023/07/11 05:09:45;;;;;;;14.63;10.02;;;22.40;51.20;;;24.14;41.35;97742.19;5033283;28;20045;-52
2023/07/11 05:12:26;;;;;;;8.13;5.95;;;22.50;51.20;;;24.21;41.38;97733.84;5026950;28;20045;-52
2023/07/11 05:14:54;;;;;;;8.70;5.15;;;22.50;50.90;;;24.27;41.53;97723.88;5033153;28;20041;-53
2023/07/11 05:17:21;;;;;;;7.53;5.05;;;22.60;50.70;;;24.32;41.39;97729.41;5033452;28;20041;-53
2023/07/11 05:19:49;;;;;;;7.32;5.95;;;22.80;50.60;;;24.36;41.50;97730.56;5032930;28;20052;-51
2023/07/11 05:22:16;;;;;;;8.18;5.65;;;22.90;50.50;;;24.38;41.47;97725.69;5032863;28;20060;-51
2023/07/11 05:24:44;;;;;;;6.28;5.05;;;22.90;51.30;;;24.40;41.50;97728.16;5033167;28;20045;-53
2023/07/11 05:27:12;;;;;;;7.97;6.15;;;23.00;50.30;;;24.44;41.57;97721.16;5033136;28;20045;-49
2023/07/11 05:29:39;;;;;;;6.03;4.88;;;23.10;50.40;;;24.47;41.66;97718.75;5031651;28;20498;-52
2023/07/11 05:32:07;;;;;;;8.70;4.72;;;23.10;51.10;;;24.52;41.67;97710.72;5032672;28;20049;-51
2023/07/11 05:34:34;;;;;;;6.15;4.75;;;23.10;50.50;;;24.57;41.57;97701.78;5033204;28;20493;-52
2023/07/11 05:37:04;;;;;;;8.35;5.85;;;23.10;50.40;;;24.64;41.89;97705.19;5034012;28;20042;-52
2023/07/11 05:39:31;;;;;;;6.53;4.85;;;23.20;50.30;;;24.70;41.66;97700.63;5031818;28;20033;-53
2023/07/11 05:41:59;;;;;;;6.53;5.25;;;23.20;50.10;;;24.76;41.28;97707.78;5032648;28;20045;-51
2023/07/11 05:44:27;;;;;;;5.47;4.95;;;23.40;50.80;;;24.84;41.19;97706.53;5031557;28;20034;-52
2023/07/11 05:46:54;;;;;;;5.45;4.95;;;23.40;49.90;;;24.89;41.16;97706.56;5032823;28;20041;-51
2023/07/11 05:49:22;;;;;;;5.78;4.47;;;23.50;49.70;;;24.94;41.13;97707.47;5032610;28;20412;-51
2023/07/11 05:51:50;;;;;;;6.82;4.70;;;23.60;49.50;;;24.96;41.07;97705.31;5032519;28;20045;-54
2023/07/11 05:54:18;;;;;;;5.68;4.90;;;23.70;49.50;;;25.00;41.29;97702.91;5030924;28;20049;-53
2023/07/11 05:56:46;;;;;;;9.43;5.40;;;23.70;49.30;;;25.05;41.05;97700.28;5032709;28;20508;-54
2023/07/11 05:59:14;;;;;;;7.05;6.03;;;23.80;49.00;;;25.09;40.88;97698.69;5014510;28;20049;-53
2023/07/11 06:01:41;;;;;;;5.25;4.75;;;23.90;48.90;;;25.09;41.02;97700.59;5032779;28;20056;-52
2023/07/11 06:04:18;;;;;;;8.75;5.03;;;23.90;48.60;;;25.12;40.83;97697.34;5032495;28;20045;-52
2023/07/11 06:06:46;;;;;;;10.30;5.90;;;24.00;48.70;;;25.19;40.76;97697.16;5032115;28;20034;-52
2023/07/11 06:09:17;;;;;;;5.10;4.60;;;24.00;48.70;;;25.25;40.72;97698.91;5032257;28;20515;-52
2023/07/11 06:11:47;;;;;;;6.53;5.07;;;24.10;48.70;;;25.32;40.81;97694.09;5031984;28;20037;-53
2023/07/11 06:14:17;;;;;;;5.82;4.43;;;24.20;48.50;;;25.39;40.51;97694.69;5032299;28;20045;-54
2023/07/11 06:16:46;;;;;;;6.13;5.07;;;24.20;48.40;;;25.44;40.90;97693.94;5032522;28;20044;-51
2023/07/11 06:19:18;;;;;;;6.57;4.63;;;24.20;48.30;;;25.46;40.57;97691.78;5032079;28;20053;-54
2023/07/11 06:21:46;;;;;;;12.18;5.70;;;24.30;48.40;;;25.51;40.70;97689.94;5032015;28;20052;-50
2023/07/11 06:24:14;;;;;;;7.75;4.50;;;24.30;48.40;;;25.54;40.43;97689.41;5030660;28;20132;-49
2023/07/11 06:26:41;;;;;;;13.02;5.00;;;24.40;48.30;;;25.59;40.32;97691.38;5032120;28;20048;-52
2023/07/11 06:29:09;;;;;;;16.95;6.25;;;24.40;48.20;;;25.64;40.49;97693.31;5031820;28;20056;-52
2023/07/11 06:31:36;;;;;;;9.38;5.03;;;24.40;48.30;;;25.68;40.73;97691.72;5031917;28;20037;-50
2023/07/11 06:34:04;;;;;;;6.32;5.10;;;24.50;48.30;;;25.70;40.21;97686.84;5032181;28;20409;-54
2023/07/11 06:36:32;;;;;;;6.93;4.70;;;24.60;48.00;;;25.75;40.29;97686.88;5022935;28;20042;-53
2023/07/11 06:38:59;;;;;;;6.95;5.40;;;24.60;48.00;;;25.82;40.36;97690.19;5031815;28;20048;-54
2023/07/11 06:41:28;;;;;;;12.80;6.13;;;24.70;47.90;;;25.86;39.99;97682.34;5030735;28;20046;-51
2023/07/11 06:43:56;;;;;;;11.25;4.95;;;24.70;47.70;;;25.91;40.15;97682.41;5031790;28;20045;-54
2023/07/11 06:46:24;;;;;;;7.03;5.18;;;24.80;47.50;;;25.94;39.86;97681.91;5031566;28;20053;-52
2023/07/11 06:48:54;;;;;;;9.95;5.68;;;24.80;47.50;;;25.98;40.05;97683.03;5031491;28;20033;-53
2023/07/11 06:51:22;;;;;;;9.13;6.32;;;24.90;47.40;;;26.02;39.84;97681.44;5031322;28;20048;-54
2023/07/11 06:53:49;;;;;;;13.60;6.03;;;25.00;47.20;;;26.04;39.88;97671.09;5031719;28;20047;-52
2023/07/11 06:56:17;;;;;;;6.35;5.55;;;25.00;47.30;;;26.09;39.88;97671.13;5031349;28;20056;-51
2023/07/11 06:58:45;;;;;;;7.43;5.15;;;25.00;47.30;;;26.12;40.16;97673.31;5031532;28;20489;-51
2023/07/11 07:01:12;;;;;;;8.20;5.10;;;25.10;47.20;;;26.18;40.07;97674.19;5031135;28;20424;-54
2023/07/11 07:04:00;;;;;;;10.50;5.57;;;25.10;47.20;;;26.22;40.09;97666.31;5030584;28;20446;-49
2023/07/11 07:06:31;;;;;;;6.65;5.60;;;25.20;47.10;;;26.26;39.86;97673.69;5031122;28;20421;-52
2023/07/11 07:09:00;;;;;;;8.68;5.70;;;25.20;47.10;;;26.34;40.07;97675.09;5031158;28;20048;-52
2023/07/11 07:11:27;;;;;;;7.15;5.25;;;25.30;47.10;;;26.40;39.72;97671.31;5031028;28;20049;-52
2023/07/11 07:13:55;;;;;;;8.07;5.88;;;25.40;47.00;;;26.46;39.64;97672.19;5031507;28;20501;-50
2023/07/11 07:16:34;;;;;;;9.23;6.07;;;25.40;46.70;;;26.52;39.62;97654.75;5031155;28;20050;-54
2023/07/11 07:19:11;;;;;;;7.25;5.70;;;25.50;46.70;;;26.60;39.77;97661.66;5030359;28;20044;-48
2023/07/11 07:21:39;;;;;;;7.38;5.97;;;25.60;46.10;;;26.63;39.58;97656.47;5023803;28;20052;-50
2023/07/11 07:24:07;;;;;;;7.30;6.03;;;25.60;46.20;;;26.69;39.58;97655.41;5031234;28;20056;-52
2023/07/11 07:26:35;;;;;;;6.30;5.45;;;25.70;45.90;;;26.77;39.29;97656.00;5023186;28;20420;-53
2023/07/11 07:29:03;;;;;;;8.25;4.43;;;25.80;45.60;;;26.82;38.29;97651.41;5031067;28;20041;-52
2023/07/11 07:31:30;;;;;;;6.10;4.80;;;25.80;44.60;;;26.91;38.46;97654.44;5031152;28;20049;-53
2023/07/11 07:33:58;;;;;;;5.38;4.63;;;25.90;44.30;;;26.98;38.01;97652.28;5031406;28;20044;-49
2023/07/11 07:36:25;;;;;;;6.80;5.25;;;26.00;43.80;;;27.04;37.89;97653.94;5030938;28;20501;-53
2023/07/11 07:38:53;;;;;;;8.00;5.07;;;26.00;43.80;;;27.13;37.72;97656.97;5031225;28;20512;-51
2023/07/11 07:41:21;;;;;;;9.25;4.88;;;26.20;43.60;;;27.19;37.52;97647.72;5030162;28;20524;-53
2023/07/11 07:43:48;;;;;;;6.28;5.18;;;26.20;43.50;;;27.26;37.13;97647.50;5031081;28;20413;-52
2023/07/11 07:46:18;;;;;;;6.65;4.97;;;26.20;43.40;;;27.35;37.45;97650.50;5031037;28;20046;-53
2023/07/11 07:48:46;;;;;;;6.03;4.70;;;26.30;43.10;;;27.43;37.12;97649.97;5030530;28;20044;-54
2023/07/11 07:51:17;;;;;;;6.30;5.20;;;26.40;42.90;;;27.49;36.97;97643.41;5030621;28;20528;-52
2023/07/11 07:53:46;;;;;;;8.85;5.05;;;26.50;42.70;;;27.55;37.13;97645.09;5031046;28;20045;-52
2023/07/11 07:56:21;;;;;;;8.27;5.38;;;26.60;42.70;;;27.58;36.58;97633.59;5030932;28;20057;-50
2023/07/11 07:58:50;;;;;;;8.23;5.38;;;26.60;42.20;;;27.63;36.70;97639.09;5030868;28;20056;-49
2023/07/11 08:01:20;;;;;;;6.35;5.57;;;26.60;42.60;;;27.71;37.04;97642.38;5030554;28;20053;-53
2023/07/11 08:03:48;;;;;;;6.80;5.72;;;26.70;42.70;;;27.79;36.81;97630.91;5029803;28;20045;-50
2023/07/11 08:06:17;;;;;;;6.82;5.13;;;26.80;42.60;;;27.86;36.74;97632.25;5030584;28;20393;-51
2023/07/11 08:08:49;;;;;;;8.70;5.75;;;26.90;43.40;;;27.94;37.02;97624.66;5030593;28;20488;-52
2023/07/11 08:11:20;;;;;;;6.50;5.90;;;27.00;43.20;;;28.01;36.72;97622.44;5029693;28;20045;-51
2023/07/11 08:13:49;;;;;;;6.53;5.25;;;27.00;43.30;;;28.04;37.16;97619.97;5031062;28;20488;-54
2023/07/11 08:16:19;;;;;;;9.15;5.65;;;27.00;43.20;;;28.10;36.98;97614.50;5030746;28;20416;-51
2023/07/11 08:18:59;;;;;;;8.38;5.32;;;27.10;43.30;;;28.15;37.10;97611.75;5029279;28;20424;-54
2023/07/11 08:21:27;;;;;;;8.15;5.35;;;27.10;43.30;;;28.21;36.93;97616.13;5030140;28;20045;-53
2023/07/11 08:23:54;;;;;;;8.25;5.63;;;27.20;43.10;;;28.27;37.12;97610.34;5031014;28;20051;-54
2023/07/11 08:26:22;;;;;;;9.18;5.68;;;27.30;43.20;;;28.36;37.25;97615.25;5030620;28;20048;-53
2023/07/11 08:28:51;;;;;;;10.50;5.75;;;27.40;43.40;;;28.41;36.94;97609.78;5030736;28;20389;-53
2023/07/11 08:31:20;;;;;;;9.73;6.30;;;27.40;43.30;;;28.45;36.78;97602.66;5032435;28;20049;-49
2023/07/11 08:33:48;;;;;;;10.40;6.07;;;27.50;43.00;;;28.51;37.01;97601.56;5033932;28;20037;-51
2023/07/11 08:36:16;;;;;;;8.98;6.35;;;27.50;43.00;;;28.58;36.68;97602.09;5034396;28;20046;-51
2023/07/11 08:38:45;;;;;;;10.35;5.22;;;27.60;43.00;;;28.66;37.01;97595.22;5034097;28;20560;-52
2023/07/11 08:41:38;;;;;;;7.85;5.78;;;27.70;43.00;;;28.71;37.05;97595.19;5033670;28;20057;-53
2023/07/11 08:44:18;;;;;;;8.70;6.17;;;27.70;42.90;;;28.76;36.88;97586.97;5028406;28;20497;-49
2023/07/11 08:46:58;;;;;;;11.20;6.90;;;27.70;43.00;;;28.82;37.00;97582.28;5025305;28;20037;-52
2023/07/11 08:49:34;;;;;;;8.50;6.38;;;27.80;43.30;;;28.89;37.59;97584.69;5034339;28;20045;-52
2023/07/11 08:52:05;;;;;;;10.65;6.63;;;27.90;43.90;;;28.96;37.92;97577.81;5024633;28;20042;-54
2023/07/11 08:54:49;;;;;;;9.23;6.38;;;27.90;44.30;;;29.05;37.58;97583.53;5032323;28;20052;-52
2023/07/11 08:57:19;;;;;;;6.57;5.85;;;28.00;44.50;;;29.08;37.48;97574.75;5032728;28;20041;-53
2023/07/11 09:00:08;;;;;;;8.65;6.88;;;28.10;44.30;;;29.11;37.76;97576.91;5026096;28;20185;-52
2023/07/11 09:03:04;;;;;;;6.38;5.75;;;28.10;44.70;;;29.22;38.08;97569.50;5032235;28;20389;-51
2023/07/11 09:05:52;;;;;;;8.32;6.63;;;28.20;45.20;;;29.28;38.09;97573.84;5032403;28;20397;-53
2023/07/11 09:08:20;;;;;;;6.47;5.88;;;28.30;45.10;;;29.34;37.69;97561.72;5032154;28;20052;-50
2023/07/11 09:11:04;;;;;;;8.27;6.50;;;28.30;44.60;;;29.39;37.56;97556.22;5032127;28;20038;-53
2023/07/11 09:14:15;;;;;;;7.85;6.70;;;28.40;44.50;;;29.44;37.72;97545.19;5032075;28;20045;-54
2023/07/11 09:17:01;;;;;;;9.27;6.75;;;28.50;44.20;;;29.57;37.73;97545.66;5025426;28;20054;-49
2023/07/11 09:19:50;;;;;;;9.77;8.32;;;28.50;44.50;;;29.65;37.38;97539.53;5033136;28;20045;-49
2023/07/11 09:22:44;;;;;;;10.10;6.88;;;28.70;44.10;;;29.68;36.89;97544.44;5033098;28;20053;-51
2023/07/11 09:25:32;;;;;;;12.52;10.02;;;28.70;42.70;;;29.75;36.75;97541.41;5028761;28;20398;-49
2023/07/11 09:28:13;;;;;;;8.50;6.93;;;28.70;42.50;;;29.76;36.17;97537.53;5027158;28;20038;-53
2023/07/11 09:30:54;;;;;;;7.40;6.32;;;28.80;41.90;;;29.79;35.98;97534.25;5032840;28;20056;-50
2023/07/11 09:33:37;;;;;;;7.35;6.68;;;28.80;41.60;;;29.81;36.27;97540.25;5031780;28;20053;-52
2023/07/11 09:36:38;;;;;;;6.35;5.82;;;28.80;41.60;;;29.78;36.27;97536.16;5032130;28;20280;-52
2023/07/11 09:39:35;;;;;;;6.63;5.97;;;28.80;42.00;;;29.82;36.44;97531.75;5021468;28;20059;-53
2023/07/11 09:42:26;;;;;;;12.50;7.00;;;28.80;43.00;;;29.88;36.48;97520.72;5025710;28;20046;-52
2023/07/11 09:45:11;;;;;;;6.20;5.60;;;28.90;42.10;;;29.98;36.52;97520.63;5025608;28;20394;-50
2023/07/11 09:47:41;;;;;;;8.93;6.70;;;29.00;42.50;;;30.07;35.85;97518.88;5031356;28;20049;-54
2023/07/11 09:50:41;;;;;;;16.98;15.07;;;29.10;42.40;;;30.18;35.64;97514.06;5032635;28;20420;-54
2023/07/11 09:53:23;;;;;;;15.10;11.63;;;29.30;41.30;;;30.30;35.19;97520.00;5028904;28;20041;-53
2023/07/11 09:55:55;;;;;;;;;;;29.30;41.40;;;30.37;35.61;97514.16;5025838;28;20428;-53
2023/07/11 09:58:39;;;;;;;8.38;7.55;;;29.30;40.80;;;30.45;35.33;97510.75;5032358;28;19921;-53
2023/07/11 10:01:17;;;;;;;8.35;6.47;;;29.40;41.20;;;30.49;35.06;97508.25;5032394;28;20041;-54
2023/07/11 10:03:47;;;;;;;7.38;5.90;;;29.50;40.80;;;30.63;35.17;97511.91;5032807;28;20044;-53
2023/07/11 10:06:35;;;;;;;6.65;6.03;;;29.60;41.60;;;30.72;35.06;97506.59;5032451;28;20492;-51
2023/07/11 10:09:15;;;;;;;7.00;6.30;;;29.80;40.00;;;30.85;34.62;97511.34;5025367;28;20042;-54
2023/07/11 10:11:54;;;;;;;6.85;6.07;;;30.00;39.70;;;30.92;34.71;97506.34;5031982;28;20516;-51
2023/07/11 10:14:29;;;;;;;6.57;5.93;;;30.00;39.80;;;31.03;34.57;97503.44;5032373;28;20037;-50
2023/07/11 10:16:58;;;;;;;6.75;6.07;;;30.10;39.50;;;31.09;34.28;97507.72;5025723;28;20041;-51
2023/07/11 10:19:27;;;;;;;7.05;5.95;;;30.30;40.20;;;31.16;33.87;97502.69;5032284;28;20033;-50
2023/07/11 10:21:59;;;;;;;8.60;6.50;;;30.30;39.20;;;31.25;33.12;97503.63;5030910;28;20037;-51
2023/07/11 10:24:38;;;;;;;7.47;6.17;;;30.40;38.30;;;31.30;33.55;97505.47;5032023;28;20046;-53
2023/07/11 10:27:14;;;;;;;7.70;6.15;;;30.60;37.80;;;31.46;33.21;97495.88;5032716;28;20076;-52
2023/07/11 10:29:55;;;;;;;12.52;7.40;;;30.80;37.90;;;31.57;33.72;97494.59;5014170;28;20097;-51
2023/07/11 10:32:40;;;;;;;6.72;6.13;;;30.90;37.60;;;31.71;33.01;97491.06;5031948;28;20046;-52
2023/07/11 10:35:22;;;;;;;7.82;7.07;;;31.00;37.90;;;31.81;33.12;97488.13;5024864;28;20050;-53